Pagrindinis puslapis
METAR-TAF:

METAR-TAF

Oro uostai :

Jimmy Lake, Saskačevanas, Kanada

platuma: 54-55N, ilguma: 109-57W, Aukštis: 658 m

Dabartinis oras

Ataskaita buvo paskelbta 54 minutes, ne 12:00 UTC
Vėjas 6 kt iš Pietvakarių, svyruoja nuo Pietų ir Vakarų
Temperatūra -24°C
Drėgmė 63%
Slėgis 1025 hPa
Matomumas: 14.5 km
Išsisklaidę debesys ne aukštis 5400 ft

METAR: CWHN 191200Z AUTO 22006KT 180V260 9SM SCT054 M24/M29 A3028 RMK SLP327

Laikas: 06:54 (12:54 UTC)


TAF: trūkstamas

Orai ataskaitas ir orų prognozės (METAR, TAF).

turimą stotys yra geltonos ir raudonos taškus žemėlapyje.

Perkelti pele per norėdami pamatyti stoties vardą.

Tada spustelėkite, norėdami matyti oro stebėjimo ir prognozės.

Norėdami pakeisti žemėlapį: spustelėkite ant žalios mygtukų su juodo kryžiaus žemyn,; žalią mygtuką su brūkšneliu, jei norite nutolinti; arba žalių rodyklių gretimoms žemėlapius.


METAR-TAF: